Time;durP1;ratioP1;P1;durP2;ratioP2;P2;SDS_P1;SDS_P2;PMS_P1;PMS_P2;Temp;Humidity;BMP_temperature;BMP_pressure;BME280_temperature;BME280_humidity;BME280_pressure;Samples;Min_cycle;Max_cycle;Signal;HPM_P1;HPM_P2
2023/06/22 00:00:58;;;;;;;;;;;25.90;47.70;;;25.32;46.15;101487.91;12246983;19;19910;-91
2023/06/22 00:05:00;;;;;;;;;;;25.90;47.60;;;25.29;46.19;101490.06;12249577;19;19907;-90
2023/06/22 00:09:01;;;;;;;;;;;25.80;47.60;;;25.15;46.42;101483.50;12250561;19;19986;-89
2023/06/22 00:13:03;;;;;;;;;;;25.70;47.60;;;25.19;46.31;101506.22;12246809;19;19923;-90
2023/06/22 00:17:05;;;;;;;;;;;25.70;47.70;;;24.98;46.55;101473.69;12251549;19;19923;-90
2023/06/22 00:21:08;;;;;;;;;;;25.70;47.80;;;25.19;46.29;101514.25;12249358;19;19919;-90
2023/06/22 00:25:10;;;;;;;;;;;25.70;47.80;;;25.16;46.85;101518.06;12247276;19;19944;-90
2023/06/22 00:29:12;;;;;;;;;;;25.60;47.80;;;24.91;46.45;101486.88;12248712;19;19922;-90
2023/06/22 00:33:13;;;;;;;;;;;25.60;48.00;;;25.07;46.48;101540.41;12245275;19;19911;-90
2023/06/22 00:37:16;;;;;;;;;;;25.60;47.90;;;24.98;46.96;101546.72;12250803;19;19919;-90
2023/06/22 00:41:18;;;;;;;;;;;25.50;47.90;;;24.99;46.82;101544.88;12246877;19;19978;-90
2023/06/22 00:45:19;;;;;;;;;;;25.50;47.90;;;24.91;46.62;101537.66;12246071;19;20255;-90
2023/06/22 00:49:21;;;;;;;;;;;25.40;47.90;;;24.90;46.98;101539.50;12248213;19;19966;-90
2023/06/22 00:53:23;;;;;;;;;;;25.40;47.90;;;24.82;47.01;101535.94;12251791;19;20322;-90
2023/06/22 00:57:27;;;;;;;;;;;25.30;47.90;;;24.58;46.47;101507.25;12258682;19;19921;-90
2023/06/22 01:01:30;;;;;;;;;;;25.30;47.90;;;24.70;46.88;101540.69;12257671;19;19918;-90
2023/06/22 01:05:32;;;;;;;;;;;25.30;47.90;;;24.55;46.85;101529.75;12256982;19;20267;-90
2023/06/22 01:09:41;;;;;;;;;;;25.20;47.80;;;24.49;46.92;101528.56;12258997;19;19911;-91
2023/06/22 01:14:14;;;;;;;;;;;25.10;47.80;;;24.56;46.80;101563.47;12253027;19;19923;-90
2023/06/22 01:18:18;;;;;;;;;;;25.10;47.90;;;24.48;46.93;101561.56;12253897;19;20346;-90
2023/06/22 01:22:20;;;;;;;;;;;25.00;48.00;;;24.43;46.83;101558.50;12258107;19;19919;-90
2023/06/22 01:26:35;;;;;;;;;;;24.90;48.10;;;24.33;47.24;101546.22;12253527;19;19931;-90
2023/06/22 01:30:39;;;;;;;;;;;24.90;48.10;;;24.35;47.09;101560.28;12257971;19;19925;-90
2023/06/22 01:34:42;;;;;;;;;;;24.90;48.10;;;24.12;47.00;101528.72;12252745;19;20313;-90
2023/06/22 01:38:44;;;;;;;;;;;24.80;48.10;;;24.29;47.37;101557.22;12258061;19;19914;-90
2023/06/22 01:42:47;;;;;;;;;;;24.80;48.20;;;24.21;47.02;101548.31;12251861;19;20329;-90
2023/06/22 01:46:49;;;;;;;;;;;24.80;48.20;;;24.05;47.34;101536.50;12251953;19;19910;-90
2023/06/22 01:50:50;;;;;;;;;;;24.70;48.20;;;24.23;47.44;101567.69;12254998;19;19923;-91
2023/06/22 01:54:52;;;;;;;;;;;24.70;48.30;;;24.20;47.31;101574.19;12252172;19;19918;-91
2023/06/22 01:59:03;;;;;;;;;;;24.70;48.30;;;24.11;47.38;101564.41;12254755;19;20597;-90
2023/06/22 02:03:26;;;;;;;;;;;24.70;48.30;;;24.18;47.43;101576.16;12250378;19;19926;-90
2023/06/22 02:07:32;;;;;;;;;;;24.70;48.40;;;24.12;47.46;101576.78;12255308;19;20333;-90
2023/06/22 02:11:39;;;;;;;;;;;24.70;48.40;;;23.95;47.46;101557.09;12253942;19;19931;-90
2023/06/22 02:15:41;;;;;;;;;;;24.60;48.40;;;24.00;47.50;101572.63;12255730;19;19915;-90
2023/06/22 02:19:43;;;;;;;;;;;24.60;48.50;;;23.97;47.53;101573.78;12255245;19;19918;-90
2023/06/22 02:23:45;;;;;;;;;;;24.50;48.60;;;23.95;47.36;101580.25;12250605;19;19922;-90
2023/06/22 02:27:46;;;;;;;;;;;24.50;48.50;;;23.86;47.81;101571.34;12252485;19;19926;-90
2023/06/22 02:31:48;;;;;;;;;;;24.50;48.60;;;23.69;47.64;101572.97;12250944;19;19939;-90
2023/06/22 02:35:50;;;;;;;;;;;24.40;48.70;;;23.80;47.51;101587.94;12250363;19;19922;-90
2023/06/22 02:39:52;;;;;;;;;;;24.40;48.70;;;23.88;47.63;101600.53;12253157;19;19949;-90
2023/06/22 02:43:55;;;;;;;;;;;24.40;48.70;;;23.78;47.71;101593.41;12248824;19;19979;-89
2023/06/22 02:47:57;;;;;;;;;;;24.40;48.70;;;23.81;47.44;101595.78;12253837;19;20306;-90
2023/06/22 02:51:59;;;;;;;;;;;24.40;48.80;;;23.73;47.55;101585.03;12251398;19;19918;-90
2023/06/22 02:56:05;;;;;;;;;;;24.40;48.70;;;23.72;47.57;101591.34;12251935;19;19915;-89
2023/06/22 03:00:17;;;;;;;;;;;24.30;48.70;;;23.73;47.75;101601.03;12252307;19;19927;-89
2023/06/22 03:04:20;;;;;;;;;;;24.30;48.70;;;23.58;47.60;101587.34;12249091;19;19929;-90
2023/06/22 03:08:22;;;;;;;;;;;24.30;48.80;;;23.45;47.68;101583.34;12253361;19;19915;-90
2023/06/22 03:12:24;;;;;;;;;;;24.30;48.80;;;23.57;47.94;101592.81;12249655;19;19926;-91
2023/06/22 03:21:33;;;;;;;;;;;24.20;48.90;;;23.56;47.84;101596.47;12246998;19;19911;-91
2023/06/22 03:25:35;;;;;;;;;;;24.10;49.00;;;23.53;47.97;101599.44;12248687;19;20330;-91
2023/06/22 03:29:37;;;;;;;;;;;24.10;49.00;;;23.40;48.21;101581.09;12249548;19;19907;-83
2023/06/22 03:33:40;;;;;;;;;;;24.10;49.10;;;23.52;47.90;101605.75;12243919;19;19931;-83
2023/06/22 03:37:42;;;;;;;;;;;24.10;49.50;;;23.44;48.36;101597.63;12248832;19;20249;-83
2023/06/22 03:41:44;;;;;;;;;;;24.00;49.20;;;23.31;48.16;101584.66;12247377;19;19919;-83
2023/06/22 03:45:46;;;;;;;;;;;24.00;49.10;;;23.28;48.26;101588.47;12245907;19;20339;-83
2023/06/22 03:49:48;;;;;;;;;;;24.00;49.30;;;23.35;48.13;101602.03;12246319;19;19926;-83
2023/06/22 03:53:49;;;;;;;;;;;23.90;49.20;;;23.11;48.04;101570.56;12244259;19;19919;-83
2023/06/22 03:57:51;;;;;;;;;;;23.90;49.30;;;23.28;48.36;101603.63;12246279;19;19990;-83
2023/06/22 04:01:52;;;;;;;;;;;23.90;49.50;;;23.25;48.21;101604.75;12247149;19;20305;-83
2023/06/22 04:05:54;;;;;;;;;;;23.90;49.40;;;23.07;48.16;101586.00;12243858;19;19928;-83
2023/06/22 04:09:56;;;;;;;;;;;23.80;49.90;;;22.91;48.58;101570.59;12248414;19;19935;-83
2023/06/22 04:13:57;;;;;;;;;;;23.70;49.40;;;23.07;48.24;101604.66;12243726;19;20341;-84
2023/06/22 04:17:59;;;;;;;;;;;23.80;49.70;;;23.11;48.50;101607.88;12244811;19;19944;-83
2023/06/22 04:22:00;;;;;;;;;;;23.70;49.70;;;23.06;48.48;101596.81;12243169;19;19931;-82
2023/06/22 04:26:02;;;;;;;;;;;23.80;49.90;;;22.89;48.59;101564.56;12240288;19;19922;-83
2023/06/22 04:30:04;;;;;;;;;;;23.70;50.20;;;23.14;48.45;101612.91;12256946;19;20349;-83
2023/06/22 04:34:08;;;;;;;;;;;23.70;50.20;;;23.20;48.78;101625.66;12248289;19;19918;-83
2023/06/22 04:38:13;;;;;;;;;;;23.80;50.00;;;23.12;48.89;101614.91;12257406;19;19919;-82
2023/06/22 04:42:14;;;;;;;;;;;23.80;50.00;;;23.26;49.02;101626.91;12254986;19;19948;-83
2023/06/22 04:46:16;;;;;;;;;;;23.90;50.20;;;23.30;48.75;101626.44;12254162;19;19922;-83
2023/06/22 04:50:20;;;;;;;;;;;23.90;50.10;;;23.32;48.76;101624.50;12256992;19;19935;-83
2023/06/22 04:54:22;;;;;;;;;;;24.00;50.20;;;23.31;49.04;101614.81;12253326;19;19915;-83
2023/06/22 04:58:26;;;;;;;;;;;24.00;50.50;;;23.47;49.24;101638.19;12255982;19;19915;-83
2023/06/22 05:02:32;;;;;;;;;;;24.10;50.60;;;23.53;48.84;101629.59;12254561;19;19926;-82
2023/06/22 05:06:34;;;;;;;;;;;24.20;50.30;;;23.57;49.20;101622.13;12250914;19;19930;-83
2023/06/22 05:10:35;;;;;;;;;;;24.30;50.30;;;23.68;49.03;101642.44;12255917;19;19940;-83
2023/06/22 05:14:37;;;;;;;;;;;24.30;50.30;;;23.66;48.94;101623.94;12250334;19;19923;-84
2023/06/22 05:18:39;;;;;;;;;;;24.40;50.30;;;23.75;49.11;101636.41;12254419;19;20249;-83
2023/06/22 05:22:42;;;;;;;;;;;24.50;50.20;;;23.84;48.96;101640.00;12250552;19;19915;-84
2023/06/22 05:26:44;;;;;;;;;;;24.60;50.20;;;23.90;49.25;101630.56;12250884;19;19937;-83
2023/06/22 05:30:45;;;;;;;;;;;24.70;50.10;;;23.77;49.56;101610.44;12250293;19;19942;-84
2023/06/22 05:34:47;;;;;;;;;;;24.70;50.10;;;24.03;49.34;101655.06;12248271;19;19918;-83
2023/06/22 05:38:49;;;;;;;;;;;24.80;50.20;;;24.08;49.59;101655.44;12248552;19;19918;-84
2023/06/22 05:42:50;;;;;;;;;;;24.90;50.00;;;24.13;49.40;101647.81;12247489;19;19983;-83
2023/06/22 05:46:52;;;;;;;;;;;24.90;50.10;;;24.21;49.19;101639.91;12243397;19;19951;-83
2023/06/22 05:50:54;;;;;;;;;;;25.00;50.10;;;24.26;49.20;101640.28;12243030;19;20270;-84
2023/06/22 05:54:55;;;;;;;;;;;25.10;50.10;;;24.33;49.32;101647.69;12249710;19;19944;-84
2023/06/22 05:58:57;;;;;;;;;;;25.10;50.10;;;24.49;49.75;101661.22;12253603;19;19925;-85
2023/06/22 06:03:03;;;;;;;;;;;25.20;50.10;;;24.59;49.79;101663.81;12249821;19;19919;-83
2023/06/22 06:07:04;;;;;;;;;;;25.40;50.20;;;24.39;49.50;101615.06;12250889;19;19918;-84
2023/06/22 06:11:06;;;;;;;;;;;25.50;49.90;;;24.66;49.51;101654.22;12249467;19;19926;-83
2023/06/22 06:15:08;;;;;;;;;;;25.50;49.80;;;24.79;49.70;101661.81;12255520;19;20260;-83
2023/06/22 06:19:09;;;;;;;;;;;25.60;49.70;;;24.85;49.55;101667.38;12254986;19;19930;-83
2023/06/22 06:23:10;;;;;;;;;;;25.70;49.90;;;24.96;49.41;101655.59;12249024;19;19915;-83
2023/06/22 06:27:12;;;;;;;;;;;25.80;49.90;;;25.02;49.66;101646.94;12244044;19;19929;-82
2023/06/22 06:31:17;;;;;;;;;;;25.90;49.70;;;25.17;49.57;101658.78;12248926;19;20333;-83
2023/06/22 06:35:18;;;;;;;;;;;26.00;49.70;;;25.17;49.63;101637.41;12251904;19;19982;-84
2023/06/22 06:39:20;;;;;;;;;;;26.10;49.70;;;25.35;49.28;101650.69;12250765;19;19927;-82
2023/06/22 06:43:22;;;;;;;;;;;26.30;49.60;;;25.50;49.43;101656.28;12244279;19;19978;-82
2023/06/22 06:47:24;;;;;;;;;;;26.30;49.20;;;25.54;49.33;101654.97;12248220;19;19922;-82
2023/06/22 06:51:26;;;;;;;;;;;26.50;49.20;;;25.65;49.48;101656.50;12246901;19;19931;-84
2023/06/22 06:55:28;;;;;;;;;;;26.60;48.90;;;25.77;49.68;101665.09;12248774;19;20245;-83
2023/06/22 06:59:30;;;;;;;;;;;26.60;48.90;;;25.75;49.23;101635.00;12252999;19;20548;-83
2023/06/22 07:03:33;;;;;;;;;;;26.70;48.80;;;25.97;49.62;101653.16;12245174;19;19915;-82
2023/06/22 07:07:34;;;;;;;;;;;26.80;48.70;;;26.08;49.05;101640.47;12252884;19;20322;-82
2023/06/22 07:11:36;;;;;;;;;;;27.00;48.90;;;26.19;49.32;101642.81;12248684;19;19921;-81
2023/06/22 07:15:37;;;;;;;;;;;27.10;48.80;;;26.32;49.13;101637.00;12248300;19;20309;-83
2023/06/22 07:19:40;;;;;;;;;;;27.20;48.60;;;26.46;49.10;101613.06;12251166;19;19921;-82
2023/06/22 07:23:41;;;;;;;;;;;27.40;48.60;;;26.61;49.16;101609.75;12244072;19;19918;-82
2023/06/22 07:27:45;;;;;;;;;;;27.50;47.60;;;26.69;49.05;101602.53;12251556;19;19922;-82
2023/06/22 07:31:50;;;;;;;;;;;27.60;48.20;;;26.88;49.36;101613.91;12242173;19;20349;-83
2023/06/22 07:35:52;;;;;;;;;;;27.80;47.00;;;26.99;48.84;101604.66;12248673;19;20272;-83
2023/06/22 07:39:58;;;;;;;;;;;27.90;47.80;;;27.01;48.97;101603.50;12251015;19;20612;-84
2023/06/22 07:43:59;;;;;;;;;;;28.00;47.50;;;27.14;48.73;101616.38;12244770;19;19911;-82
2023/06/22 07:48:01;;;;;;;;;;;28.10;47.30;;;27.12;48.47;101611.16;12250314;19;19919;-84
2023/06/22 07:52:04;;;;;;;;;;;28.10;47.00;;;27.18;48.76;101611.53;12249869;19;20321;-83
2023/06/22 07:56:07;;;;;;;;;;;28.10;47.20;;;27.22;48.72;101610.16;12249661;19;19914;-83
2023/06/22 08:00:15;;;;;;;;;;;28.20;47.20;;;27.28;48.37;101610.31;12246457;19;19959;-82
2023/06/22 08:04:18;;;;;;;;;;;28.20;45.30;;;27.29;48.42;101593.19;12244580;19;19922;-82
2023/06/22 08:08:19;;;;;;;;;;;28.20;46.90;;;27.33;48.53;101588.34;12250829;19;19928;-84
2023/06/22 08:12:21;;;;;;;;;;;28.30;46.90;;;27.47;48.55;101611.75;12248771;19;19939;-83
2023/06/22 08:16:22;;;;;;;;;;;28.30;47.30;;;27.53;48.49;101612.91;12244489;19;19947;-83
2023/06/22 08:20:24;;;;;;;;;;;28.40;47.10;;;27.59;48.45;101607.66;12246326;19;19978;-83
2023/06/22 08:24:25;;;;;;;;;;;28.50;45.50;;;27.67;48.32;101612.16;12241381;19;20357;-82
2023/06/22 08:28:27;;;;;;;;;;;28.60;45.00;;;27.69;48.35;101609.28;12245556;19;20353;-84
2023/06/22 08:32:28;;;;;;;;;;;28.60;45.80;;;27.76;48.03;101603.06;12241163;19;19930;-83
2023/06/22 08:36:32;;;;;;;;;;;28.70;45.80;;;27.80;47.88;101601.72;12244761;19;19918;-82
2023/06/22 08:40:34;;;;;;;;;;;28.70;45.20;;;27.87;47.65;101604.53;12244856;19;19922;-83
2023/06/22 08:44:35;;;;;;;;;;;28.80;45.30;;;27.87;47.73;101591.09;12240996;19;20269;-83
2023/06/22 08:48:37;;;;;;;;;;;28.80;44.90;;;27.97;47.78;101601.59;12242425;19;20300;-82
2023/06/22 08:52:41;;;;;;;;;;;28.80;45.00;;;28.05;47.54;101601.53;12240108;19;19918;-81
2023/06/22 08:56:44;;;;;;;;;;;28.90;45.50;;;28.10;47.53;101604.53;12243553;19;19919;-82
2023/06/22 09:00:45;;;;;;;;;;;29.00;43.80;;;28.16;47.71;101611.88;12239969;19;19926;-83
2023/06/22 09:04:47;;;;;;;;;;;29.00;44.50;;;28.17;47.70;101597.44;12241031;19;19915;-82
2023/06/22 09:08:49;;;;;;;;;;;29.10;43.60;;;28.22;47.36;101587.00;12242186;19;19922;-82
2023/06/22 09:12:50;;;;;;;;;;;29.10;41.10;;;28.32;47.04;101602.03;12241917;19;20333;-83
2023/06/22 09:16:52;;;;;;;;;;;29.10;41.60;;;28.37;46.96;101581.66;12252816;19;19919;-82
2023/06/22 09:20:53;;;;;;;;;;;29.30;44.60;;;28.57;46.92;101589.22;12249392;19;19922;-83
2023/06/22 09:24:55;;;;;;;;;;;29.40;42.80;;;28.68;46.77;101594.19;12249135;19;19999;-82
2023/06/22 09:28:57;;;;;;;;;;;29.50;41.10;;;28.79;46.85;101591.06;12248929;19;20336;-82
2023/06/22 09:32:59;;;;;;;;;;;29.60;43.70;;;28.86;46.63;101586.59;12246208;19;19920;-82
2023/06/22 09:37:01;;;;;;;;;;;29.70;44.20;;;28.92;46.61;101582.31;12248744;19;20345;-82
2023/06/22 09:41:03;;;;;;;;;;;29.80;42.90;;;28.95;46.48;101590.06;12251157;19;19931;-82
2023/06/22 09:45:05;;;;;;;;;;;29.80;44.80;;;28.99;46.50;101588.66;12250339;19;19923;-82
2023/06/22 09:49:07;;;;;;;;;;;29.90;43.80;;;29.02;46.27;101590.97;12251235;19;20276;-83
2023/06/22 09:53:08;;;;;;;;;;;29.90;40.50;;;28.88;46.31;101557.66;12245329;19;20367;-82
2023/06/22 09:57:10;;;;;;;;;;;29.90;42.60;;;29.03;45.85;101575.66;12252701;19;19914;-82
2023/06/22 10:01:11;;;;;;;;;;;29.90;43.20;;;29.05;46.35;101569.09;12248732;19;20289;-82
2023/06/22 10:05:13;;;;;;;;;;;30.00;42.30;;;29.13;46.28;101580.78;12248687;19;19919;-82
2023/06/22 10:09:15;;;;;;;;;;;29.90;43.50;;;29.08;46.20;101573.28;12252428;19;20248;-82
2023/06/22 10:13:16;;;;;;;;;;;29.90;40.80;;;29.11;45.70;101584.53;12245554;19;19935;-82
2023/06/22 10:17:18;;;;;;;;;;;30.00;42.40;;;29.15;45.68;101576.91;12251972;19;20253;-82
2023/06/22 10:21:19;;;;;;;;;;;30.00;43.00;;;29.27;45.61;101582.63;12247187;19;20341;-82
2023/06/22 10:25:21;;;;;;;;;;;30.10;41.00;;;29.30;45.66;101576.88;12245886;19;20345;-82
2023/06/22 10:29:23;;;;;;;;;;;30.10;37.50;;;29.31;45.25;101582.06;12249822;19;19939;-82
2023/06/22 10:33:24;;;;;;;;;;;30.10;42.00;;;29.32;45.15;101582.91;12246994;19;20279;-82
2023/06/22 10:37:26;;;;;;;;;;;30.10;38.70;;;29.30;45.17;101571.50;12251801;19;19919;-82
2023/06/22 10:41:29;;;;;;;;;;;30.10;42.60;;;29.32;44.88;101572.16;12250193;19;19915;-81
2023/06/22 10:45:31;;;;;;;;;;;30.10;40.60;;;29.23;45.18;101546.38;12251837;19;19927;-82
2023/06/22 10:49:33;;;;;;;;;;;30.10;41.20;;;29.34;44.63;101562.03;12255388;19;20355;-82
2023/06/22 10:53:34;;;;;;;;;;;30.10;40.90;;;29.37;44.71;101561.66;12256876;19;19911;-82
2023/06/22 10:57:36;;;;;;;;;;;30.10;42.30;;;29.43;44.80;101554.69;12259429;19;20336;-83
2023/06/22 11:01:38;;;;;;;;;;;30.20;42.30;;;29.44;44.62;101554.50;12259456;19;19926;-83
2023/06/22 11:05:40;;;;;;;;;;;30.20;41.30;;;29.43;44.84;101525.91;12251049;19;20292;-81
2023/06/22 11:09:43;;;;;;;;;;;30.30;41.40;;;29.52;44.65;101535.56;12250687;19;20279;-82
2023/06/22 11:13:44;;;;;;;;;;;30.30;40.80;;;29.54;44.22;101520.06;12250831;19;19923;-83
2023/06/22 11:17:46;;;;;;;;;;;30.30;42.30;;;29.66;44.70;101525.78;12250742;19;19915;-82
2023/06/22 11:21:47;;;;;;;;;;;30.40;40.40;;;29.81;44.43;101525.72;12251745;19;19918;-81
2023/06/22 11:25:49;;;;;;;;;;;30.50;42.40;;;29.91;44.27;101526.22;12246549;19;19947;-82
2023/06/22 11:29:52;;;;;;;;;;;30.60;42.30;;;30.04;44.07;101514.75;12247869;19;20003;-81
2023/06/22 11:33:54;;;;;;;;;;;30.80;42.70;;;30.13;44.02;101504.66;12244382;19;19922;-82
2023/06/22 11:37:56;;;;;;;;;;;30.90;42.20;;;30.28;44.08;101502.75;12244220;19;19917;-81
2023/06/22 11:41:57;;;;;;;;;;;31.00;41.90;;;30.40;43.71;101505.72;12247648;19;19918;-82
2023/06/22 11:46:00;;;;;;;;;;;31.10;41.10;;;30.48;43.52;101493.97;12245488;19;20352;-82
2023/06/22 11:50:02;;;;;;;;;;;31.20;40.10;;;30.58;43.55;101495.28;12243204;19;19922;-82
2023/06/22 11:54:03;;;;;;;;;;;31.30;42.00;;;30.67;43.77;101497.81;12241879;19;19919;-82
2023/06/22 11:58:06;;;;;;;;;;;31.50;41.60;;;30.73;43.41;101497.88;12243694;19;19931;-81
2023/06/22 12:02:09;;;;;;;;;;;31.60;41.70;;;30.81;43.64;101505.81;12240679;19;19923;-82
2023/06/22 12:06:10;;;;;;;;;;;31.60;42.10;;;30.86;43.40;101494.41;12242857;19;19927;-81
2023/06/22 12:10:12;;;;;;;;;;;31.70;42.70;;;30.99;43.27;101499.06;12245289;19;19922;-81
2023/06/22 12:14:14;;;;;;;;;;;31.80;42.60;;;31.14;43.50;101504.31;12241692;19;19985;-81
2023/06/22 12:18:15;;;;;;;;;;;31.90;42.50;;;31.14;43.26;101483.56;12243291;19;19922;-82
2023/06/22 12:22:17;;;;;;;;;;;32.00;41.20;;;31.25;43.47;101479.44;12244761;19;19934;-81
2023/06/22 12:26:18;;;;;;;;;;;32.10;41.30;;;31.33;43.20;101475.72;12238496;19;19955;-82
2023/06/22 12:30:20;;;;;;;;;;;32.10;40.80;;;31.46;42.90;101473.06;12243088;19;19923;-81
2023/06/22 12:34:22;;;;;;;;;;;32.20;38.80;;;31.48;42.92;101452.91;12240488;19;20283;-81
2023/06/22 12:38:26;;;;;;;;;;;32.30;41.30;;;31.57;42.87;101458.97;12244412;19;19947;-81
2023/06/22 12:42:28;;;;;;;;;;;32.30;39.40;;;31.59;42.69;101454.19;12241862;19;19919;-81
2023/06/22 12:46:35;;;;;;;;;;;32.40;40.60;;;31.52;42.42;101454.19;12240602;19;19930;-81
2023/06/22 12:50:37;;;;;;;;;;;32.30;38.80;;;31.52;42.39;101442.56;12253961;19;19922;-82
2023/06/22 12:54:39;;;;;;;;;;;32.40;40.60;;;31.59;42.33;101443.38;12247296;19;19939;-81
2023/06/22 12:58:40;;;;;;;;;;;32.40;38.30;;;31.64;42.14;101423.88;12253507;19;19930;-82
2023/06/22 13:02:42;;;;;;;;;;;32.40;41.00;;;31.70;41.97;101418.47;12250864;19;20275;-81
2023/06/22 13:06:47;;;;;;;;;;;32.40;40.90;;;31.78;41.89;101422.00;12249744;19;19946;-82
2023/06/22 13:10:48;;;;;;;;;;;32.50;40.90;;;31.85;41.95;101407.44;12253398;19;20335;-81
2023/06/22 13:14:50;;;;;;;;;;;32.60;37.90;;;31.95;41.92;101399.78;12252365;19;20269;-81
2023/06/22 13:18:51;;;;;;;;;;;32.70;40.50;;;31.90;41.63;101379.81;12257404;19;19919;-88
2023/06/22 13:22:54;;;;;;;;;;;32.80;41.20;;;32.09;41.54;101399.75;12257382;19;19910;-89
2023/06/22 13:26:55;;;;;;;;;;;32.80;41.10;;;32.15;41.85;101386.22;12258350;19;19918;-91
2023/06/22 13:30:57;;;;;;;;;;;32.90;41.40;;;32.20;41.64;101368.56;12261093;19;19919;-90
2023/06/22 13:34:58;;;;;;;;;;;33.00;40.70;;;32.33;41.49;101390.16;12258431;19;19961;-90
2023/06/22 13:39:00;;;;;;;;;;;33.10;40.30;;;32.36;41.33;101376.19;12259544;19;19919;-90
2023/06/22 13:43:01;;;;;;;;;;;33.10;40.80;;;32.23;41.43;101341.09;12254071;19;19923;-91
2023/06/22 13:47:04;;;;;;;;;;;33.20;41.50;;;32.49;41.58;101369.94;12248443;19;19930;-90
2023/06/22 13:51:06;;;;;;;;;;;33.20;40.30;;;32.52;41.24;101377.63;12257867;19;20282;-90
2023/06/22 13:55:08;;;;;;;;;;;33.30;41.20;;;32.55;41.08;101350.97;12257473;19;20329;-90
2023/06/22 13:59:09;;;;;;;;;;;33.30;40.40;;;32.55;41.14;101350.16;12254509;19;20348;-90
2023/06/22 14:03:11;;;;;;;;;;;33.40;39.70;;;32.48;41.34;101327.72;12257063;19;19918;-91
2023/06/22 14:07:12;;;;;;;;;;;33.40;41.00;;;32.63;41.03;101327.44;12254230;19;19983;-90
2023/06/22 14:11:14;;;;;;;;;;;33.40;40.60;;;32.73;40.92;101325.94;12256795;19;19949;-90
2023/06/22 14:15:15;;;;;;;;;;;33.50;40.80;;;32.74;40.91;101313.22;12256657;19;19927;-90
2023/06/22 14:19:18;;;;;;;;;;;33.50;40.60;;;32.86;40.73;101319.59;12256109;19;19906;-90
2023/06/22 14:23:20;;;;;;;;;;;33.60;40.70;;;32.86;40.82;101307.94;12255795;19;20597;-90
2023/06/22 14:27:21;;;;;;;;;;;33.60;40.80;;;32.65;40.52;101269.38;12253371;19;19926;-90
2023/06/22 14:31:22;;;;;;;;;;;33.60;40.50;;;32.93;40.57;101303.31;12255219;19;19953;-90
2023/06/22 14:35:24;;;;;;;;;;;33.60;40.00;;;32.96;40.51;101297.47;12254936;19;19919;-90
2023/06/22 14:39:26;;;;;;;;;;;33.70;40.00;;;32.91;40.37;101291.88;12258004;19;19919;-91
2023/06/22 14:43:27;;;;;;;;;;;33.70;40.60;;;32.96;40.08;101292.88;12252102;19;19923;-90
2023/06/22 14:47:29;;;;;;;;;;;33.70;40.30;;;32.84;40.35;101279.22;12254707;19;20321;-91
2023/06/22 14:51:30;;;;;;;;;;;33.70;40.30;;;32.89;39.86;101264.19;12257190;19;19915;-90
2023/06/22 14:55:32;;;;;;;;;;;33.70;39.50;;;32.87;40.28;101253.63;12254815;19;19922;-91
2023/06/22 14:59:33;;;;;;;;;;;33.70;38.50;;;32.94;39.96;101245.44;12254646;19;19907;-91
2023/06/22 15:03:35;;;;;;;;;;;33.70;39.00;;;32.90;39.89;101236.94;12251717;19;19996;-91
2023/06/22 15:07:37;;;;;;;;;;;33.60;39.70;;;32.86;39.84;101230.28;12254160;19;20622;-91
2023/06/22 15:11:39;;;;;;;;;;;33.60;40.20;;;32.90;39.82;101219.88;12255740;19;19978;-90
2023/06/22 15:15:40;;;;;;;;;;;33.60;39.40;;;32.91;39.79;101226.94;12252388;19;19947;-91
2023/06/22 15:19:42;;;;;;;;;;;33.50;39.20;;;32.77;39.99;101199.97;12256639;19;19944;-91
2023/06/22 15:23:43;;;;;;;;;;;33.50;39.20;;;32.91;39.42;101216.94;12251966;19;20279;-91
2023/06/22 15:27:45;;;;;;;;;;;33.50;39.60;;;32.83;39.40;101218.03;12255336;19;19919;-90
2023/06/22 15:31:47;;;;;;;;;;;33.50;39.80;;;32.81;39.07;101228.28;12253493;19;19990;-91
2023/06/22 15:35:48;;;;;;;;;;;33.50;39.20;;;32.77;39.27;101221.63;12251457;19;19911;-91
2023/06/22 15:39:50;;;;;;;;;;;33.50;39.10;;;32.80;39.33;101212.25;12254006;19;19922;-90
2023/06/22 15:43:51;;;;;;;;;;;33.50;39.40;;;32.83;39.51;101206.38;12248955;19;19999;-90
2023/06/22 15:47:53;;;;;;;;;;;33.50;39.60;;;32.89;39.18;101210.09;12254953;19;19919;-91
2023/06/22 15:51:55;;;;;;;;;;;33.50;38.80;;;32.77;39.17;101183.75;12249902;19;19927;-91
2023/06/22 15:55:56;;;;;;;;;;;33.50;39.80;;;32.88;39.38;101193.03;12254068;19;19926;-91
2023/06/22 15:59:58;;;;;;;;;;;33.50;39.60;;;32.73;38.90;101158.22;12252598;19;19919;-90
2023/06/22 16:04:00;;;;;;;;;;;33.40;39.10;;;32.72;38.69;101155.72;12250520;19;19922;-91
2023/06/22 16:08:01;;;;;;;;;;;33.40;39.30;;;32.73;38.79;101158.22;12249529;19;19915;-90
2023/06/22 16:12:03;;;;;;;;;;;33.40;39.60;;;32.84;38.72;101183.72;12249016;19;19940;-90
2023/06/22 16:16:05;;;;;;;;;;;33.40;39.40;;;32.80;39.07;101185.19;12249420;19;19923;-90
2023/06/22 16:20:08;;;;;;;;;;;33.40;39.00;;;32.54;38.79;101138.38;12253147;19;20307;-92
2023/06/22 16:24:10;;;;;;;;;;;33.30;38.80;;;32.72;38.81;101167.34;12254613;19;20235;-91
2023/06/22 16:28:11;;;;;;;;;;;33.30;38.70;;;32.63;38.61;101135.41;12262185;19;19911;-91
2023/06/22 16:32:14;;;;;;;;;;;33.30;38.90;;;32.67;38.76;101142.00;12254284;19;20481;-91
2023/06/22 16:36:15;;;;;;;;;;;33.20;39.10;;;32.59;38.52;101133.16;12262335;19;20428;-91
2023/06/22 16:40:20;;;;;;;;;;;33.20;39.10;;;32.49;39.01;101099.53;12263712;19;19914;-90
2023/06/22 16:44:21;;;;;;;;;;;33.10;39.30;;;32.31;38.89;101062.41;12257476;19;20357;-91
2023/06/22 16:48:23;;;;;;;;;;;33.00;39.40;;;32.48;38.81;101100.56;12274021;19;19911;-91
2023/06/22 16:52:25;;;;;;;;;;;33.00;39.10;;;32.37;38.54;101100.19;12261134;19;19966;-91
2023/06/22 16:56:27;;;;;;;;;;;33.00;38.60;;;32.28;38.73;101082.59;12265120;19;19919;-91
2023/06/22 17:00:28;;;;;;;;;;;32.90;37.30;;;32.23;38.50;101081.59;12260407;19;19915;-91
2023/06/22 17:04:33;;;;;;;;;;;32.80;39.20;;;32.03;38.39;101073.63;12261894;19;19938;-91
2023/06/22 17:08:35;;;;;;;;;;;32.70;39.30;;;32.10;38.28;101098.75;12263680;19;19919;-91
2023/06/22 17:12:37;;;;;;;;;;;32.70;39.10;;;31.92;38.79;101070.59;12261643;19;19975;-90
2023/06/22 17:16:41;;;;;;;;;;;32.60;38.80;;;31.80;38.71;101057.97;12261382;19;19978;-92
2023/06/22 17:20:43;;;;;;;;;;;32.50;39.30;;;31.79;38.70;101069.81;12260353;19;19986;-92
2023/06/22 17:24:46;;;;;;;;;;;32.50;39.10;;;31.63;38.20;101060.34;12262662;19;19910;-93
2023/06/22 17:28:52;;;;;;;;;;;32.30;39.10;;;31.73;38.23;101091.25;12260587;19;19994;-92
2023/06/22 17:32:54;;;;;;;;;;;32.30;39.20;;;31.42;38.44;101047.97;12261229;19;19911;-92
2023/06/22 17:36:57;;;;;;;;;;;32.20;39.30;;;31.56;38.33;101073.88;12261594;19;20700;-92
2023/06/22 17:41:02;;;;;;;;;;;32.10;39.30;;;31.56;38.45;101063.06;12262797;19;19932;-90
2023/06/22 17:45:04;;;;;;;;;;;32.00;39.30;;;31.45;38.38;101048.38;12255568;19;19915;-93
2023/06/22 17:49:10;;;;;;;;;;;32.00;39.40;;;31.48;38.18;101039.00;12255660;19;20261;-92
2023/06/22 17:53:12;;;;;;;;;;;32.00;39.30;;;31.32;38.68;101032.19;12255563;19;19953;-92
2023/06/22 17:57:17;;;;;;;;;;;31.90;39.00;;;31.24;38.49;101016.25;12258345;19;20252;-92
2023/06/22 18:01:34;;;;;;;;;;;31.80;39.10;;;31.26;38.64;101016.88;12258550;19;19953;-91
2023/06/22 18:05:37;;;;;;;;;;;31.80;39.20;;;31.09;38.55;100998.47;12256769;19;19919;-91
2023/06/22 18:09:40;;;;;;;;;;;31.70;39.30;;;31.03;38.48;101003.91;12254696;19;19918;-91
2023/06/22 18:13:43;;;;;;;;;;;31.60;38.80;;;30.90;38.49;100996.69;12251715;19;19907;-91